Time,TemperatureF,DewpointF,PressureIn,WindDirection,WindDirectionDegrees,WindSpeedMPH,WindSpeedGustMPH,Humidity,HourlyPrecipIn,Conditions,Clouds,dailyrainin,SoftwareType,DateUTC
2013-09-24 00:13:00,46.4,46.1,29.99,SE,135,0.0,-999.0,99,-99.99,,,0.00,Acu-Link.com,2013-09-24 04:13:00,
2013-09-24 00:28:00,46.2,45.9,30.00,SE,135,0.0,-999.0,99,-99.99,,,0.00,Acu-Link.com,2013-09-24 04:28:00,
2013-09-24 00:43:00,46.0,45.7,30.00,ENE,67,1.7,-999.0,99,-99.99,,,0.00,Acu-Link.com,2013-09-24 04:43:00,
2013-09-24 00:58:00,46.8,46.5,29.99,ENE,67,0.0,-999.0,99,-99.99,,,0.00,Acu-Link.com,2013-09-24 04:58:00,
2013-09-24 01:14:00,47.8,47.5,30.00,ENE,67,0.0,-999.0,99,-99.99,,,0.00,Acu-Link.com,2013-09-24 05:14:00,
2013-09-24 01:29:00,48.2,47.9,29.99,SW,225,0.0,-999.0,99,-99.99,,,0.00,Acu-Link.com,2013-09-24 05:29:00,
2013-09-24 01:44:00,48.2,47.9,30.00,SW,225,0.0,-999.0,99,-99.99,,,0.00,Acu-Link.com,2013-09-24 05:44:00,
2013-09-24 02:00:00,48.0,47.7,30.00,SW,225,0.0,-999.0,99,-99.99,,,0.00,Acu-Link.com,2013-09-24 06:00:00,
2013-09-24 02:15:00,48.7,48.4,30.00,SW,225,0.0,-999.0,99,-99.99,,,0.00,Acu-Link.com,2013-09-24 06:15:00,
2013-09-24 02:30:00,48.6,48.3,30.00,SW,225,0.0,-999.0,99,-99.99,,,0.00,Acu-Link.com,2013-09-24 06:30:00,
2013-09-24 02:46:00,49.1,48.8,29.99,East,90,0.0,-999.0,99,-99.99,,,0.00,Acu-Link.com,2013-09-24 06:46:00,
2013-09-24 03:01:00,49.6,49.3,29.99,NNW,337,0.0,-999.0,99,-99.99,,,0.00,Acu-Link.com,2013-09-24 07:01:00,
2013-09-24 03:16:00,49.6,49.3,29.99,NNE,22,0.0,-999.0,99,-99.99,,,0.00,Acu-Link.com,2013-09-24 07:16:00,
2013-09-24 03:31:00,49.6,49.3,29.99,SSE,157,0.0,-999.0,99,-99.99,,,0.00,Acu-Link.com,2013-09-24 07:31:00,
2013-09-24 03:47:00,49.5,49.2,29.99,East,90,0.0,-999.0,99,-99.99,,,0.00,Acu-Link.com,2013-09-24 07:47:00,
2013-09-24 04:02:00,49.6,49.3,29.99,East,90,0.0,-999.0,99,-99.99,,,0.00,Acu-Link.com,2013-09-24 08:02:00,
2013-09-24 04:17:00,49.6,49.3,29.99,East,90,0.0,-999.0,99,-99.99,,,0.00,Acu-Link.com,2013-09-24 08:17:00,
2013-09-24 04:32:00,49.5,49.2,29.99,NNW,337,0.0,-999.0,99,-99.99,,,0.00,Acu-Link.com,2013-09-24 08:32:00,
2013-09-24 04:47:00,50.0,49.7,29.99,East,90,0.0,-999.0,99,-99.99,,,0.00,Acu-Link.com,2013-09-24 08:47:00,
2013-09-24 05:02:00,50.4,50.1,29.99,NNE,22,0.0,-999.0,99,-99.99,,,0.00,Acu-Link.com,2013-09-24 09:02:00,
2013-09-24 05:18:00,50.5,50.2,29.99,East,90,0.0,-999.0,99,-99.99,,,0.00,Acu-Link.com,2013-09-24 09:18:00,
2013-09-24 05:33:00,50.9,50.6,29.99,ENE,67,2.2,-999.0,99,-99.99,,,0.00,Acu-Link.com,2013-09-24 09:33:00,
2013-09-24 05:48:00,50.5,50.2,29.99,ENE,67,0.0,-999.0,99,-99.99,,,0.00,Acu-Link.com,2013-09-24 09:48:00,
2013-09-24 06:03:00,50.4,50.1,29.99,NE,45,0.0,-999.0,99,-99.99,,,0.00,Acu-Link.com,2013-09-24 10:03:00,
2013-09-24 06:18:00,50.4,50.1,29.99,NNE,22,0.0,-999.0,99,-99.99,,,0.00,Acu-Link.com,2013-09-24 10:18:00,
2013-09-24 06:34:00,50.4,50.1,30.00,NNE,22,0.0,-999.0,99,-99.99,,,0.00,Acu-Link.com,2013-09-24 10:34:00,
2013-09-24 06:49:00,50.5,50.2,30.00,North,0,0.0,-999.0,99,-99.99,,,0.00,Acu-Link.com,2013-09-24 10:49:00,
2013-09-24 07:04:00,50.7,50.4,30.00,North,0,0.0,-999.0,99,-99.99,,,0.00,Acu-Link.com,2013-09-24 11:04:00,
2013-09-24 07:19:00,51.1,50.8,30.00,NE,45,0.0,-999.0,99,-99.99,,,0.00,Acu-Link.com,2013-09-24 11:19:00,
2013-09-24 07:35:00,51.4,51.1,30.00,ESE,112,0.0,-999.0,99,-99.99,,,0.00,Acu-Link.com,2013-09-24 11:35:00,
2013-09-24 08:05:00,52.0,51.7,30.00,ESE,112,0.0,-999.0,99,-99.99,,,0.00,Acu-Link.com,2013-09-24 12:05:00,
2013-09-24 08:21:00,52.5,52.2,30.01,ESE,112,0.0,-999.0,99,-99.99,,,0.00,Acu-Link.com,2013-09-24 12:21:00,
2013-09-24 08:36:00,52.9,52.6,30.00,NNW,337,0.0,-999.0,99,-99.99,,,0.00,Acu-Link.com,2013-09-24 12:36:00,
2013-09-24 08:51:00,54.0,53.7,29.99,NW,315,0.0,-999.0,99,-99.99,,,0.00,Acu-Link.com,2013-09-24 12:51:00,
2013-09-24 09:07:00,53.2,52.9,30.00,East,90,2.2,-999.0,99,-99.99,,,0.00,Acu-Link.com,2013-09-24 13:07:00,
2013-09-24 09:22:00,54.7,54.4,29.99,SE,135,0.0,-999.0,99,-99.99,,,0.00,Acu-Link.com,2013-09-24 13:22:00,
2013-09-24 09:37:00,56.8,56.0,29.99,NNW,337,0.0,-999.0,97,-99.99,,,0.00,Acu-Link.com,2013-09-24 13:37:00,
2013-09-24 09:52:00,58.6,57.8,29.98,West,270,0.0,-999.0,97,-99.99,,,0.00,Acu-Link.com,2013-09-24 13:52:00,
2013-09-24 10:07:00,59.0,57.0,29.98,WNW,292,0.0,-999.0,93,-99.99,,,0.00,Acu-Link.com,2013-09-24 14:07:00,
2013-09-24 10:22:00,59.7,56.8,29.98,East,90,2.7,-999.0,90,-99.99,,,0.00,Acu-Link.com,2013-09-24 14:22:00,
2013-09-24 10:38:00,57.2,55.2,29.97,East,90,2.2,-999.0,93,-99.99,,,0.00,Acu-Link.com,2013-09-24 14:38:00,
2013-09-24 10:53:00,57.2,55.8,29.96,ESE,112,2.7,-999.0,95,-99.99,,,0.00,Acu-Link.com,2013-09-24 14:53:00,
2013-09-24 11:08:00,60.3,58.9,29.95,ESE,112,2.2,-999.0,95,-99.99,,,0.00,Acu-Link.com,2013-09-24 15:08:00,
2013-09-24 11:24:00,61.2,59.5,29.93,NW,315,0.0,-999.0,94,-99.99,,,0.00,Acu-Link.com,2013-09-24 15:24:00,
2013-09-24 11:39:00,62.1,58.8,29.86,NW,315,4.2,-999.0,89,-99.99,,,0.00,Acu-Link.com,2013-09-24 15:39:00,
2013-09-24 11:54:00,60.6,57.6,29.86,West,270,0.0,-999.0,90,-99.99,,,0.00,Acu-Link.com,2013-09-24 15:54:00,
2013-09-24 12:09:00,62.1,58.5,29.85,NW,315,2.7,-999.0,88,-99.99,,,0.00,Acu-Link.com,2013-09-24 16:09:00,
2013-09-24 12:25:00,63.7,60.4,29.83,ESE,112,5.3,-999.0,89,-99.99,,,0.00,Acu-Link.com,2013-09-24 16:25:00,
2013-09-24 12:40:00,64.2,59.9,29.80,NNE,22,3.2,-999.0,86,-99.99,,,0.00,Acu-Link.com,2013-09-24 16:40:00,
2013-09-24 12:55:00,65.7,60.4,29.80,North,0,2.7,-999.0,83,-99.99,,,0.00,Acu-Link.com,2013-09-24 16:55:00,
2013-09-24 13:10:00,66.6,60.9,29.80,WNW,292,2.2,-999.0,82,-99.99,,,0.00,Acu-Link.com,2013-09-24 17:10:00,
2013-09-24 13:26:00,66.9,61.9,29.80,NNW,337,4.2,-999.0,84,-99.99,,,0.00,Acu-Link.com,2013-09-24 17:26:00,
2013-09-24 13:41:00,64.2,59.9,29.82,ENE,67,1.7,-999.0,86,-99.99,,,0.00,Acu-Link.com,2013-09-24 17:41:00,
2013-09-24 13:56:00,67.5,62.1,29.82,ESE,112,2.7,-999.0,83,-99.99,,,0.00,Acu-Link.com,2013-09-24 17:56:00,
2013-09-24 14:11:00,67.5,61.1,29.80,ESE,112,2.2,-999.0,80,-99.99,,,0.00,Acu-Link.com,2013-09-24 18:11:00,
2013-09-24 14:26:00,68.5,61.4,29.79,WNW,292,6.3,-999.0,78,-99.99,,,0.00,Acu-Link.com,2013-09-24 18:26:00,
2013-09-24 14:42:00,68.7,63.0,29.79,SSW,202,1.7,-999.0,82,-99.99,,,0.00,Acu-Link.com,2013-09-24 18:42:00,
2013-09-24 14:57:00,68.0,61.9,29.79,SSE,157,2.2,-999.0,81,-99.99,,,0.00,Acu-Link.com,2013-09-24 18:57:00,
2013-09-24 15:12:00,68.0,60.9,29.77,ESE,112,4.2,-999.0,78,-99.99,,,0.00,Acu-Link.com,2013-09-24 19:12:00,
2013-09-24 15:27:00,68.7,61.2,29.78,NNW,337,3.7,-999.0,77,-99.99,,,0.00,Acu-Link.com,2013-09-24 19:27:00,
2013-09-24 15:42:00,68.4,60.9,29.79,West,270,0.0,-999.0,77,-99.99,,,0.00,Acu-Link.com,2013-09-24 19:42:00,
2013-09-24 15:58:00,68.5,61.7,29.81,ESE,112,2.7,-999.0,79,-99.99,,,0.00,Acu-Link.com,2013-09-24 19:58:00,
2013-09-24 16:13:00,70.2,63.7,29.83,South,180,1.1,-999.0,80,-99.99,,,0.00,Acu-Link.com,2013-09-24 20:13:00,
2013-09-24 16:28:00,70.2,63.0,29.83,ESE,112,2.2,-999.0,78,-99.99,,,0.00,Acu-Link.com,2013-09-24 20:28:00,
2013-09-24 16:44:00,68.9,62.5,29.84,South,180,0.0,-999.0,80,-99.99,,,0.00,Acu-Link.com,2013-09-24 20:44:00,
2013-09-24 16:59:00,67.1,61.8,29.85,SE,135,2.2,-999.0,83,-99.99,,,0.00,Acu-Link.com,2013-09-24 20:59:00,
2013-09-24 17:14:00,66.9,61.9,29.85,East,90,4.2,-999.0,84,-99.99,,,0.00,Acu-Link.com,2013-09-24 21:14:00,
2013-09-24 17:29:00,66.9,61.9,29.85,South,180,4.7,-999.0,84,-99.99,,,0.00,Acu-Link.com,2013-09-24 21:29:00,
2013-09-24 17:44:00,66.2,61.6,29.86,West,270,3.2,-999.0,85,-99.99,,,0.00,Acu-Link.com,2013-09-24 21:44:00,
2013-09-24 17:59:00,65.1,61.1,29.85,South,180,4.2,-999.0,87,-99.99,,,0.00,Acu-Link.com,2013-09-24 21:59:00,
2013-09-24 18:15:00,63.7,60.4,29.85,SSW,202,2.2,-999.0,89,-99.99,,,0.00,Acu-Link.com,2013-09-24 22:15:00,
2013-09-24 18:30:00,63.5,60.5,29.85,South,180,2.7,-999.0,90,-99.99,,,0.00,Acu-Link.com,2013-09-24 22:30:00,
2013-09-24 18:45:00,62.6,59.6,29.86,SE,135,2.2,-999.0,90,-99.99,,,0.00,Acu-Link.com,2013-09-24 22:45:00,
2013-09-24 19:00:00,61.5,59.2,29.86,SSE,157,0.0,-999.0,92,-99.99,,,0.00,Acu-Link.com,2013-09-24 23:00:00,
2013-09-24 19:16:00,59.9,58.2,29.85,West,270,1.7,-999.0,94,-99.99,,,0.00,Acu-Link.com,2013-09-24 23:16:00,
2013-09-24 19:31:00,59.2,58.1,29.86,SW,225,2.2,-999.0,96,-99.99,,,0.00,Acu-Link.com,2013-09-24 23:31:00,
2013-09-24 19:46:00,58.3,57.7,29.86,WNW,292,0.0,-999.0,98,-99.99,,,0.00,Acu-Link.com,2013-09-24 23:46:00,
2013-09-24 20:02:00,57.6,57.3,29.87,ESE,112,0.0,-999.0,99,-99.99,,,0.00,Acu-Link.com,2013-09-25 00:02:00,
2013-09-24 20:17:00,57.0,56.7,29.88,South,180,2.7,-999.0,99,-99.99,,,0.00,Acu-Link.com,2013-09-25 00:17:00,
2013-09-24 20:32:00,56.1,55.8,29.88,West,270,0.0,-999.0,99,-99.99,,,0.00,Acu-Link.com,2013-09-25 00:32:00,
2013-09-24 20:47:00,55.9,55.6,29.89,SSW,202,2.2,-999.0,99,-99.99,,,0.00,Acu-Link.com,2013-09-25 00:47:00,
2013-09-24 21:02:00,55.9,55.6,29.89,SSE,157,2.2,-999.0,99,-99.99,,,0.00,Acu-Link.com,2013-09-25 01:02:00,
2013-09-24 21:18:00,55.4,55.1,29.88,SSE,157,2.2,-999.0,99,-99.99,,,0.00,Acu-Link.com,2013-09-25 01:18:00,
2013-09-24 21:33:00,54.9,54.6,29.88,ESE,112,0.0,-999.0,99,-99.99,,,0.00,Acu-Link.com,2013-09-25 01:33:00,
2013-09-24 21:48:00,54.1,53.8,29.89,South,180,1.7,-999.0,99,-99.99,,,0.00,Acu-Link.com,2013-09-25 01:48:00,
2013-09-24 22:03:00,53.6,53.3,29.89,SSE,157,2.7,-999.0,99,-99.99,,,0.00,Acu-Link.com,2013-09-25 02:03:00,
2013-09-24 22:19:00,53.8,53.5,29.89,SE,135,2.2,-999.0,99,-99.99,,,0.00,Acu-Link.com,2013-09-25 02:19:00,
2013-09-24 22:34:00,53.4,53.1,29.89,South,180,2.2,-999.0,99,-99.99,,,0.00,Acu-Link.com,2013-09-25 02:34:00,
2013-09-24 22:49:00,53.2,52.9,29.90,SSW,202,2.2,-999.0,99,-99.99,,,0.00,Acu-Link.com,2013-09-25 02:49:00,
2013-09-24 23:04:00,52.5,52.2,29.90,SSE,157,1.7,-999.0,99,-99.99,,,0.00,Acu-Link.com,2013-09-25 03:04:00,
2013-09-24 23:20:00,52.0,51.7,29.90,South,180,1.1,-999.0,99,-99.99,,,0.00,Acu-Link.com,2013-09-25 03:20:00,
2013-09-24 23:35:00,51.6,51.3,29.89,East,90,0.0,-999.0,99,-99.99,,,0.00,Acu-Link.com,2013-09-25 03:35:00,
2013-09-24 23:50:00,51.4,51.1,29.89,ENE,67,0.0,-999.0,99,-99.99,,,0.00,Acu-Link.com,2013-09-25 03:50:00,